sensor_id;sensor_type;location;lat;lon;timestamp;P1;durP1;ratioP1;P2;durP2;ratioP2
28311;SDS011;15572;48.810;9.148;2023-02-28T00:00:25;5.20;;;3.30;;
28311;SDS011;15572;48.810;9.148;2023-02-28T00:05:23;5.13;;;3.40;;
28311;SDS011;15572;48.810;9.148;2023-02-28T00:10:22;4.70;;;3.07;;
28311;SDS011;15572;48.810;9.148;2023-02-28T00:15:20;7.13;;;3.20;;
28311;SDS011;15572;48.810;9.148;2023-02-28T00:20:19;6.13;;;3.37;;
28311;SDS011;15572;48.810;9.148;2023-02-28T00:25:17;3.73;;;2.77;;
28311;SDS011;15572;48.810;9.148;2023-02-28T00:30:16;4.43;;;3.00;;
28311;SDS011;15572;48.810;9.148;2023-02-28T00:35:15;6.20;;;3.43;;
28311;SDS011;15572;48.810;9.148;2023-02-28T00:40:13;8.33;;;3.23;;
28311;SDS011;15572;48.810;9.148;2023-02-28T00:45:09;5.47;;;3.67;;
28311;SDS011;15572;48.810;9.148;2023-02-28T00:50:06;5.30;;;3.27;;
28311;SDS011;15572;48.810;9.148;2023-02-28T00:55:04;4.13;;;2.93;;
28311;SDS011;15572;48.810;9.148;2023-02-28T01:00:02;5.33;;;3.43;;
28311;SDS011;15572;48.810;9.148;2023-02-28T01:04:59;7.90;;;3.90;;
28311;SDS011;15572;48.810;9.148;2023-02-28T01:09:56;4.53;;;3.50;;
28311;SDS011;15572;48.810;9.148;2023-02-28T01:14:52;5.77;;;3.80;;
28311;SDS011;15572;48.810;9.148;2023-02-28T01:19:52;5.10;;;3.33;;
28311;SDS011;15572;48.810;9.148;2023-02-28T01:24:49;5.43;;;3.63;;
28311;SDS011;15572;48.810;9.148;2023-02-28T01:29:45;7.43;;;3.93;;
28311;SDS011;15572;48.810;9.148;2023-02-28T01:34:42;5.33;;;3.70;;
28311;SDS011;15572;48.810;9.148;2023-02-28T01:39:40;7.03;;;4.07;;
28311;SDS011;15572;48.810;9.148;2023-02-28T01:49:54;6.80;;;4.27;;
28311;SDS011;15572;48.810;9.148;2023-02-28T01:54:54;6.63;;;4.20;;
28311;SDS011;15572;48.810;9.148;2023-02-28T01:59:54;7.03;;;4.27;;
28311;SDS011;15572;48.810;9.148;2023-02-28T02:04:54;5.70;;;3.90;;
28311;SDS011;15572;48.810;9.148;2023-02-28T02:10:01;7.90;;;4.13;;
28311;SDS011;15572;48.810;9.148;2023-02-28T02:15:01;6.07;;;3.83;;
28311;SDS011;15572;48.810;9.148;2023-02-28T02:25:36;6.03;;;4.07;;
28311;SDS011;15572;48.810;9.148;2023-02-28T02:30:56;7.67;;;4.80;;
28311;SDS011;15572;48.810;9.148;2023-02-28T02:36:03;7.40;;;4.23;;
28311;SDS011;15572;48.810;9.148;2023-02-28T02:41:05;6.93;;;4.80;;
28311;SDS011;15572;48.810;9.148;2023-02-28T02:46:10;7.37;;;4.87;;
28311;SDS011;15572;48.810;9.148;2023-02-28T02:51:13;7.87;;;4.50;;
28311;SDS011;15572;48.810;9.148;2023-02-28T02:56:12;5.83;;;4.33;;
28311;SDS011;15572;48.810;9.148;2023-02-28T03:01:12;7.47;;;4.60;;
28311;SDS011;15572;48.810;9.148;2023-02-28T03:06:24;7.57;;;4.80;;
28311;SDS011;15572;48.810;9.148;2023-02-28T03:11:21;6.87;;;4.57;;
28311;SDS011;15572;48.810;9.148;2023-02-28T03:16:22;6.43;;;4.53;;
28311;SDS011;15572;48.810;9.148;2023-02-28T03:21:32;7.43;;;4.73;;
28311;SDS011;15572;48.810;9.148;2023-02-28T03:26:36;6.43;;;4.80;;
28311;SDS011;15572;48.810;9.148;2023-02-28T03:31:38;7.23;;;4.30;;
28311;SDS011;15572;48.810;9.148;2023-02-28T03:36:39;6.03;;;4.43;;
28311;SDS011;15572;48.810;9.148;2023-02-28T03:41:41;11.20;;;5.20;;
28311;SDS011;15572;48.810;9.148;2023-02-28T03:46:44;8.00;;;4.50;;
28311;SDS011;15572;48.810;9.148;2023-02-28T03:51:46;6.27;;;4.27;;
28311;SDS011;15572;48.810;9.148;2023-02-28T03:56:45;7.73;;;4.80;;
28311;SDS011;15572;48.810;9.148;2023-02-28T04:01:48;8.30;;;5.13;;
28311;SDS011;15572;48.810;9.148;2023-02-28T04:06:48;8.50;;;5.37;;
28311;SDS011;15572;48.810;9.148;2023-02-28T04:11:46;7.37;;;4.80;;
28311;SDS011;15572;48.810;9.148;2023-02-28T04:16:46;7.13;;;5.10;;
28311;SDS011;15572;48.810;9.148;2023-02-28T04:21:43;8.27;;;5.60;;
28311;SDS011;15572;48.810;9.148;2023-02-28T04:26:43;9.37;;;5.37;;
28311;SDS011;15572;48.810;9.148;2023-02-28T04:31:41;6.73;;;5.10;;
28311;SDS011;15572;48.810;9.148;2023-02-28T04:36:37;8.03;;;5.23;;
28311;SDS011;15572;48.810;9.148;2023-02-28T04:41:34;9.17;;;5.63;;
28311;SDS011;15572;48.810;9.148;2023-02-28T04:46:32;7.57;;;4.90;;
28311;SDS011;15572;48.810;9.148;2023-02-28T04:51:28;9.20;;;5.73;;
28311;SDS011;15572;48.810;9.148;2023-02-28T04:56:25;8.03;;;5.30;;
28311;SDS011;15572;48.810;9.148;2023-02-28T05:01:22;9.20;;;5.97;;
28311;SDS011;15572;48.810;9.148;2023-02-28T05:06:21;10.20;;;5.83;;
28311;SDS011;15572;48.810;9.148;2023-02-28T05:11:20;7.70;;;5.63;;
28311;SDS011;15572;48.810;9.148;2023-02-28T05:16:19;9.40;;;5.70;;
28311;SDS011;15572;48.810;9.148;2023-02-28T05:21:25;9.40;;;6.10;;
28311;SDS011;15572;48.810;9.148;2023-02-28T05:26:24;10.13;;;5.80;;
28311;SDS011;15572;48.810;9.148;2023-02-28T05:31:21;9.13;;;6.17;;
28311;SDS011;15572;48.810;9.148;2023-02-28T05:36:19;9.13;;;6.27;;
28311;SDS011;15572;48.810;9.148;2023-02-28T05:41:17;9.17;;;5.93;;
28311;SDS011;15572;48.810;9.148;2023-02-28T05:46:15;10.37;;;6.37;;
28311;SDS011;15572;48.810;9.148;2023-02-28T05:51:12;10.20;;;5.80;;
28311;SDS011;15572;48.810;9.148;2023-02-28T05:56:08;9.63;;;5.63;;
28311;SDS011;15572;48.810;9.148;2023-02-28T06:01:20;9.87;;;5.53;;
28311;SDS011;15572;48.810;9.148;2023-02-28T06:06:19;10.70;;;6.10;;
28311;SDS011;15572;48.810;9.148;2023-02-28T06:11:15;10.93;;;6.27;;
28311;SDS011;15572;48.810;9.148;2023-02-28T06:16:12;10.70;;;6.20;;
28311;SDS011;15572;48.810;9.148;2023-02-28T06:21:11;9.57;;;5.93;;
28311;SDS011;15572;48.810;9.148;2023-02-28T06:26:08;11.27;;;6.30;;
28311;SDS011;15572;48.810;9.148;2023-02-28T06:31:07;9.43;;;6.20;;
28311;SDS011;15572;48.810;9.148;2023-02-28T06:36:05;10.73;;;6.23;;
28311;SDS011;15572;48.810;9.148;2023-02-28T06:41:04;12.03;;;6.73;;
28311;SDS011;15572;48.810;9.148;2023-02-28T06:46:02;12.10;;;6.77;;
28311;SDS011;15572;48.810;9.148;2023-02-28T06:51:01;10.87;;;6.30;;
28311;SDS011;15572;48.810;9.148;2023-02-28T06:55:58;10.07;;;6.43;;
28311;SDS011;15572;48.810;9.148;2023-02-28T07:00:56;12.30;;;7.23;;
28311;SDS011;15572;48.810;9.148;2023-02-28T07:05:53;9.63;;;6.37;;
28311;SDS011;15572;48.810;9.148;2023-02-28T07:10:51;11.10;;;7.17;;
28311;SDS011;15572;48.810;9.148;2023-02-28T07:15:57;14.27;;;6.90;;
28311;SDS011;15572;48.810;9.148;2023-02-28T07:20:54;9.60;;;6.33;;
28311;SDS011;15572;48.810;9.148;2023-02-28T07:25:51;13.17;;;7.80;;
28311;SDS011;15572;48.810;9.148;2023-02-28T07:30:48;12.77;;;6.93;;
28311;SDS011;15572;48.810;9.148;2023-02-28T07:35:46;12.00;;;7.17;;
28311;SDS011;15572;48.810;9.148;2023-02-28T07:40:42;14.77;;;7.63;;
28311;SDS011;15572;48.810;9.148;2023-02-28T07:45:39;11.03;;;6.83;;
28311;SDS011;15572;48.810;9.148;2023-02-28T07:50:35;10.30;;;6.73;;
28311;SDS011;15572;48.810;9.148;2023-02-28T07:55:33;11.50;;;7.27;;
28311;SDS011;15572;48.810;9.148;2023-02-28T08:00:30;13.03;;;7.40;;
28311;SDS011;15572;48.810;9.148;2023-02-28T08:05:27;12.80;;;7.47;;
28311;SDS011;15572;48.810;9.148;2023-02-28T08:10:23;15.77;;;8.37;;
28311;SDS011;15572;48.810;9.148;2023-02-28T08:15:21;12.97;;;7.30;;
28311;SDS011;15572;48.810;9.148;2023-02-28T08:20:17;12.73;;;8.00;;
28311;SDS011;15572;48.810;9.148;2023-02-28T08:25:14;11.27;;;7.77;;
28311;SDS011;15572;48.810;9.148;2023-02-28T08:30:11;13.60;;;7.67;;
28311;SDS011;15572;48.810;9.148;2023-02-28T08:35:10;11.73;;;7.43;;
28311;SDS011;15572;48.810;9.148;2023-02-28T08:40:07;14.43;;;7.80;;
28311;SDS011;15572;48.810;9.148;2023-02-28T08:45:05;11.83;;;7.63;;
28311;SDS011;15572;48.810;9.148;2023-02-28T08:50:02;13.77;;;7.37;;
28311;SDS011;15572;48.810;9.148;2023-02-28T08:55:01;15.40;;;7.57;;
28311;SDS011;15572;48.810;9.148;2023-02-28T08:59:58;15.27;;;8.60;;
28311;SDS011;15572;48.810;9.148;2023-02-28T09:04:55;14.70;;;8.57;;
28311;SDS011;15572;48.810;9.148;2023-02-28T09:09:51;13.87;;;8.40;;
28311;SDS011;15572;48.810;9.148;2023-02-28T09:14:52;15.37;;;8.57;;
28311;SDS011;15572;48.810;9.148;2023-02-28T09:19:49;17.70;;;8.97;;
28311;SDS011;15572;48.810;9.148;2023-02-28T09:24:45;13.00;;;8.40;;
28311;SDS011;15572;48.810;9.148;2023-02-28T09:29:42;14.40;;;9.13;;
28311;SDS011;15572;48.810;9.148;2023-02-28T09:34:39;15.20;;;8.90;;
28311;SDS011;15572;48.810;9.148;2023-02-28T09:39:36;13.80;;;8.93;;
28311;SDS011;15572;48.810;9.148;2023-02-28T09:44:35;11.60;;;8.60;;
28311;SDS011;15572;48.810;9.148;2023-02-28T09:49:37;15.20;;;8.77;;
28311;SDS011;15572;48.810;9.148;2023-02-28T09:54:36;16.67;;;9.00;;
28311;SDS011;15572;48.810;9.148;2023-02-28T09:59:37;16.07;;;9.47;;
28311;SDS011;15572;48.810;9.148;2023-02-28T10:04:44;15.27;;;9.47;;
28311;SDS011;15572;48.810;9.148;2023-02-28T10:09:51;15.03;;;9.07;;
28311;SDS011;15572;48.810;9.148;2023-02-28T10:14:50;14.70;;;9.60;;
28311;SDS011;15572;48.810;9.148;2023-02-28T10:19:53;15.33;;;9.80;;
28311;SDS011;15572;48.810;9.148;2023-02-28T10:24:55;15.70;;;9.23;;
28311;SDS011;15572;48.810;9.148;2023-02-28T10:29:58;15.63;;;9.20;;
28311;SDS011;15572;48.810;9.148;2023-02-28T10:34:59;15.80;;;9.50;;
28311;SDS011;15572;48.810;9.148;2023-02-28T10:39:57;14.27;;;9.43;;
28311;SDS011;15572;48.810;9.148;2023-02-28T10:45:07;15.77;;;9.60;;
28311;SDS011;15572;48.810;9.148;2023-02-28T10:50:10;15.83;;;9.90;;
28311;SDS011;15572;48.810;9.148;2023-02-28T10:55:24;12.73;;;9.33;;
28311;SDS011;15572;48.810;9.148;2023-02-28T11:00:22;13.37;;;9.10;;
28311;SDS011;15572;48.810;9.148;2023-02-28T11:05:25;13.77;;;9.63;;
28311;SDS011;15572;48.810;9.148;2023-02-28T11:10:25;16.37;;;9.80;;
28311;SDS011;15572;48.810;9.148;2023-02-28T11:15:25;13.33;;;9.37;;
28311;SDS011;15572;48.810;9.148;2023-02-28T11:20:26;15.60;;;10.03;;
28311;SDS011;15572;48.810;9.148;2023-02-28T11:25:26;13.07;;;9.47;;
28311;SDS011;15572;48.810;9.148;2023-02-28T11:30:27;15.97;;;10.10;;
28311;SDS011;15572;48.810;9.148;2023-02-28T11:35:29;13.80;;;9.63;;
28311;SDS011;15572;48.810;9.148;2023-02-28T11:40:31;15.03;;;9.80;;
28311;SDS011;15572;48.810;9.148;2023-02-28T11:45:40;14.50;;;9.60;;
28311;SDS011;15572;48.810;9.148;2023-02-28T11:50:44;13.27;;;9.37;;
28311;SDS011;15572;48.810;9.148;2023-02-28T11:55:47;13.43;;;9.40;;
28311;SDS011;15572;48.810;9.148;2023-02-28T12:00:57;14.73;;;9.67;;
28311;SDS011;15572;48.810;9.148;2023-02-28T12:06:18;14.27;;;10.17;;
28311;SDS011;15572;48.810;9.148;2023-02-28T12:11:22;12.70;;;9.47;;
28311;SDS011;15572;48.810;9.148;2023-02-28T12:16:31;11.97;;;9.40;;
28311;SDS011;15572;48.810;9.148;2023-02-28T12:21:51;14.67;;;9.53;;
28311;SDS011;15572;48.810;9.148;2023-02-28T12:27:02;12.10;;;9.60;;
28311;SDS011;15572;48.810;9.148;2023-02-28T12:32:04;14.50;;;9.93;;
28311;SDS011;15572;48.810;9.148;2023-02-28T12:37:07;15.53;;;10.00;;
28311;SDS011;15572;48.810;9.148;2023-02-28T12:42:19;12.83;;;9.67;;
28311;SDS011;15572;48.810;9.148;2023-02-28T12:47:23;13.27;;;9.33;;
28311;SDS011;15572;48.810;9.148;2023-02-28T12:52:23;15.83;;;9.73;;
28311;SDS011;15572;48.810;9.148;2023-02-28T12:57:27;13.97;;;9.83;;
28311;SDS011;15572;48.810;9.148;2023-02-28T13:02:33;14.37;;;9.73;;
28311;SDS011;15572;48.810;9.148;2023-02-28T13:08:03;12.37;;;9.00;;
28311;SDS011;15572;48.810;9.148;2023-02-28T13:13:19;14.47;;;8.97;;
28311;SDS011;15572;48.810;9.148;2023-02-28T13:18:31;13.17;;;9.33;;
28311;SDS011;15572;48.810;9.148;2023-02-28T13:23:40;12.50;;;9.23;;
28311;SDS011;15572;48.810;9.148;2023-02-28T13:34:13;17.13;;;9.80;;
28311;SDS011;15572;48.810;9.148;2023-02-28T13:50:22;11.13;;;8.90;;
28311;SDS011;15572;48.810;9.148;2023-02-28T13:55:27;11.27;;;9.03;;
28311;SDS011;15572;48.810;9.148;2023-02-28T14:00:31;15.63;;;9.00;;
28311;SDS011;15572;48.810;9.148;2023-02-28T14:05:39;13.87;;;9.33;;
28311;SDS011;15572;48.810;9.148;2023-02-28T14:10:37;12.37;;;8.90;;
28311;SDS011;15572;48.810;9.148;2023-02-28T14:15:47;12.37;;;8.77;;
28311;SDS011;15572;48.810;9.148;2023-02-28T14:20:54;12.80;;;8.63;;
28311;SDS011;15572;48.810;9.148;2023-02-28T14:25:56;12.67;;;8.93;;
28311;SDS011;15572;48.810;9.148;2023-02-28T14:31:01;13.10;;;8.73;;
28311;SDS011;15572;48.810;9.148;2023-02-28T14:36:08;11.60;;;8.70;;
28311;SDS011;15572;48.810;9.148;2023-02-28T14:41:12;11.00;;;8.53;;
28311;SDS011;15572;48.810;9.148;2023-02-28T14:46:13;12.83;;;8.57;;
28311;SDS011;15572;48.810;9.148;2023-02-28T14:51:12;11.90;;;8.87;;
28311;SDS011;15572;48.810;9.148;2023-02-28T14:56:20;11.57;;;8.30;;
28311;SDS011;15572;48.810;9.148;2023-02-28T15:01:19;14.07;;;9.37;;
28311;SDS011;15572;48.810;9.148;2023-02-28T15:06:18;13.00;;;8.60;;
28311;SDS011;15572;48.810;9.148;2023-02-28T15:11:16;11.43;;;8.57;;
28311;SDS011;15572;48.810;9.148;2023-02-28T15:16:17;12.40;;;8.97;;
28311;SDS011;15572;48.810;9.148;2023-02-28T15:21:17;12.20;;;9.07;;
28311;SDS011;15572;48.810;9.148;2023-02-28T15:26:17;12.37;;;8.93;;
28311;SDS011;15572;48.810;9.148;2023-02-28T15:31:20;14.63;;;9.67;;
28311;SDS011;15572;48.810;9.148;2023-02-28T15:36:23;25.20;;;13.83;;
28311;SDS011;15572;48.810;9.148;2023-02-28T15:41:24;15.20;;;10.83;;
28311;SDS011;15572;48.810;9.148;2023-02-28T15:46:21;13.80;;;9.73;;
28311;SDS011;15572;48.810;9.148;2023-02-28T15:51:18;12.13;;;8.80;;
28311;SDS011;15572;48.810;9.148;2023-02-28T15:56:22;13.03;;;8.77;;
28311;SDS011;15572;48.810;9.148;2023-02-28T16:01:23;13.17;;;9.20;;
28311;SDS011;15572;48.810;9.148;2023-02-28T16:11:36;11.73;;;9.00;;
28311;SDS011;15572;48.810;9.148;2023-02-28T16:16:41;15.03;;;10.23;;
28311;SDS011;15572;48.810;9.148;2023-02-28T16:21:39;14.77;;;9.23;;
28311;SDS011;15572;48.810;9.148;2023-02-28T16:26:36;15.20;;;8.93;;
28311;SDS011;15572;48.810;9.148;2023-02-28T16:31:36;14.90;;;9.47;;
28311;SDS011;15572;48.810;9.148;2023-02-28T16:36:34;13.73;;;9.50;;
28311;SDS011;15572;48.810;9.148;2023-02-28T16:41:30;18.40;;;10.30;;
28311;SDS011;15572;48.810;9.148;2023-02-28T16:46:30;14.67;;;10.10;;
28311;SDS011;15572;48.810;9.148;2023-02-28T16:51:29;14.60;;;9.97;;
28311;SDS011;15572;48.810;9.148;2023-02-28T16:56:25;16.43;;;10.00;;
28311;SDS011;15572;48.810;9.148;2023-02-28T17:01:22;14.47;;;10.30;;
28311;SDS011;15572;48.810;9.148;2023-02-28T17:06:20;17.13;;;10.47;;
28311;SDS011;15572;48.810;9.148;2023-02-28T17:11:20;20.33;;;11.80;;
28311;SDS011;15572;48.810;9.148;2023-02-28T17:16:20;16.37;;;10.33;;
28311;SDS011;15572;48.810;9.148;2023-02-28T17:21:22;15.73;;;10.27;;
28311;SDS011;15572;48.810;9.148;2023-02-28T17:26:19;17.23;;;11.77;;
28311;SDS011;15572;48.810;9.148;2023-02-28T17:31:19;20.70;;;11.13;;
28311;SDS011;15572;48.810;9.148;2023-02-28T17:36:17;18.30;;;11.73;;
28311;SDS011;15572;48.810;9.148;2023-02-28T17:41:19;18.77;;;11.77;;
28311;SDS011;15572;48.810;9.148;2023-02-28T17:46:16;17.90;;;11.97;;
28311;SDS011;15572;48.810;9.148;2023-02-28T17:51:15;18.70;;;12.30;;
28311;SDS011;15572;48.810;9.148;2023-02-28T17:56:14;17.67;;;11.83;;
28311;SDS011;15572;48.810;9.148;2023-02-28T18:01:13;19.43;;;11.67;;
28311;SDS011;15572;48.810;9.148;2023-02-28T18:06:13;19.03;;;12.07;;
28311;SDS011;15572;48.810;9.148;2023-02-28T18:11:12;19.03;;;11.63;;
28311;SDS011;15572;48.810;9.148;2023-02-28T18:16:14;20.40;;;12.17;;
28311;SDS011;15572;48.810;9.148;2023-02-28T18:21:12;20.43;;;11.57;;
28311;SDS011;15572;48.810;9.148;2023-02-28T18:26:10;17.87;;;12.47;;
28311;SDS011;15572;48.810;9.148;2023-02-28T18:31:06;21.90;;;12.47;;
28311;SDS011;15572;48.810;9.148;2023-02-28T18:36:05;19.07;;;12.30;;
28311;SDS011;15572;48.810;9.148;2023-02-28T18:41:03;19.40;;;12.53;;
28311;SDS011;15572;48.810;9.148;2023-02-28T18:46:04;22.03;;;12.83;;
28311;SDS011;15572;48.810;9.148;2023-02-28T18:51:06;20.23;;;11.93;;
28311;SDS011;15572;48.810;9.148;2023-02-28T18:56:04;21.13;;;12.47;;
28311;SDS011;15572;48.810;9.148;2023-02-28T19:01:02;22.67;;;13.00;;
28311;SDS011;15572;48.810;9.148;2023-02-28T19:06:09;18.07;;;12.23;;
28311;SDS011;15572;48.810;9.148;2023-02-28T19:11:07;23.17;;;13.23;;
28311;SDS011;15572;48.810;9.148;2023-02-28T19:16:04;23.20;;;13.63;;
28311;SDS011;15572;48.810;9.148;2023-02-28T19:21:05;22.90;;;14.00;;
28311;SDS011;15572;48.810;9.148;2023-02-28T19:26:05;25.00;;;15.13;;
28311;SDS011;15572;48.810;9.148;2023-02-28T19:31:03;26.57;;;15.07;;
28311;SDS011;15572;48.810;9.148;2023-02-28T19:36:00;27.27;;;15.00;;
28311;SDS011;15572;48.810;9.148;2023-02-28T19:40:59;25.90;;;14.40;;
28311;SDS011;15572;48.810;9.148;2023-02-28T19:45:58;25.23;;;14.90;;
28311;SDS011;15572;48.810;9.148;2023-02-28T19:50:55;22.83;;;13.80;;
28311;SDS011;15572;48.810;9.148;2023-02-28T19:55:52;22.17;;;13.13;;
28311;SDS011;15572;48.810;9.148;2023-02-28T20:00:49;24.53;;;13.80;;
28311;SDS011;15572;48.810;9.148;2023-02-28T20:05:46;20.70;;;12.87;;
28311;SDS011;15572;48.810;9.148;2023-02-28T20:10:53;24.10;;;13.00;;
28311;SDS011;15572;48.810;9.148;2023-02-28T20:15:49;20.90;;;12.97;;
28311;SDS011;15572;48.810;9.148;2023-02-28T20:20:47;23.03;;;13.43;;
28311;SDS011;15572;48.810;9.148;2023-02-28T20:25:44;18.97;;;12.33;;
28311;SDS011;15572;48.810;9.148;2023-02-28T20:30:40;22.07;;;13.23;;
28311;SDS011;15572;48.810;9.148;2023-02-28T20:35:36;17.77;;;11.70;;
28311;SDS011;15572;48.810;9.148;2023-02-28T20:40:34;24.20;;;12.97;;
28311;SDS011;15572;48.810;9.148;2023-02-28T20:45:31;17.87;;;11.90;;
28311;SDS011;15572;48.810;9.148;2023-02-28T20:50:29;24.23;;;16.80;;
28311;SDS011;15572;48.810;9.148;2023-02-28T20:55:26;25.08;;;17.58;;
28311;SDS011;15572;48.810;9.148;2023-02-28T21:00:23;25.10;;;16.80;;
28311;SDS011;15572;48.810;9.148;2023-02-28T21:05:20;24.40;;;17.50;;
28311;SDS011;15572;48.810;9.148;2023-02-28T21:10:17;24.27;;;17.27;;
28311;SDS011;15572;48.810;9.148;2023-02-28T21:15:13;24.40;;;13.97;;
28311;SDS011;15572;48.810;9.148;2023-02-28T21:20:13;22.80;;;14.10;;
28311;SDS011;15572;48.810;9.148;2023-02-28T21:25:15;21.87;;;12.17;;
28311;SDS011;15572;48.810;9.148;2023-02-28T21:30:12;23.23;;;12.83;;
28311;SDS011;15572;48.810;9.148;2023-02-28T21:35:09;19.47;;;11.53;;
28311;SDS011;15572;48.810;9.148;2023-02-28T21:40:07;21.87;;;13.07;;
28311;SDS011;15572;48.810;9.148;2023-02-28T21:45:05;18.90;;;12.20;;
28311;SDS011;15572;48.810;9.148;2023-02-28T21:50:04;22.20;;;13.13;;
28311;SDS011;15572;48.810;9.148;2023-02-28T21:55:01;25.27;;;14.47;;
28311;SDS011;15572;48.810;9.148;2023-02-28T21:59:59;20.47;;;12.33;;
28311;SDS011;15572;48.810;9.148;2023-02-28T22:04:56;24.43;;;13.17;;
28311;SDS011;15572;48.810;9.148;2023-02-28T22:09:57;22.03;;;12.50;;
28311;SDS011;15572;48.810;9.148;2023-02-28T22:14:53;23.70;;;13.17;;
28311;SDS011;15572;48.810;9.148;2023-02-28T22:19:51;23.20;;;13.27;;
28311;SDS011;15572;48.810;9.148;2023-02-28T22:24:48;25.30;;;13.27;;
28311;SDS011;15572;48.810;9.148;2023-02-28T22:29:44;24.40;;;13.20;;
28311;SDS011;15572;48.810;9.148;2023-02-28T22:34:41;27.07;;;14.30;;
28311;SDS011;15572;48.810;9.148;2023-02-28T22:39:39;24.80;;;13.00;;
28311;SDS011;15572;48.810;9.148;2023-02-28T22:44:35;24.43;;;13.50;;
28311;SDS011;15572;48.810;9.148;2023-02-28T22:49:32;23.27;;;12.63;;
28311;SDS011;15572;48.810;9.148;2023-02-28T22:54:28;24.23;;;13.40;;
28311;SDS011;15572;48.810;9.148;2023-02-28T22:59:26;25.57;;;14.13;;
28311;SDS011;15572;48.810;9.148;2023-02-28T23:04:23;25.77;;;14.13;;
28311;SDS011;15572;48.810;9.148;2023-02-28T23:09:20;25.90;;;14.07;;
28311;SDS011;15572;48.810;9.148;2023-02-28T23:14:17;24.13;;;13.67;;
28311;SDS011;15572;48.810;9.148;2023-02-28T23:19:17;24.37;;;13.57;;
28311;SDS011;15572;48.810;9.148;2023-02-28T23:24:16;22.90;;;12.97;;
28311;SDS011;15572;48.810;9.148;2023-02-28T23:29:14;26.43;;;13.77;;
28311;SDS011;15572;48.810;9.148;2023-02-28T23:34:12;24.97;;;13.70;;
28311;SDS011;15572;48.810;9.148;2023-02-28T23:39:11;24.50;;;13.43;;
28311;SDS011;15572;48.810;9.148;2023-02-28T23:44:08;24.27;;;13.70;;
28311;SDS011;15572;48.810;9.148;2023-02-28T23:49:07;24.93;;;14.07;;
28311;SDS011;15572;48.810;9.148;2023-02-28T23:54:04;24.80;;;13.20;;
28311;SDS011;15572;48.810;9.148;2023-02-28T23:59:02;26.13;;;13.43;;
